sensor_id;sensor_type;location;lat;lon;timestamp;temperature;humidity
41904;DHT22;27586;51.124;4.182;2023-07-08T00:01:36;22.30;87.40
41904;DHT22;27586;51.124;4.182;2023-07-08T00:04:02;22.30;87.90
41904;DHT22;27586;51.124;4.182;2023-07-08T00:06:29;22.20;87.90
41904;DHT22;27586;51.124;4.182;2023-07-08T00:08:55;22.20;88.60
41904;DHT22;27586;51.124;4.182;2023-07-08T00:11:21;22.20;88.60
41904;DHT22;27586;51.124;4.182;2023-07-08T00:13:46;22.10;89.50
41904;DHT22;27586;51.124;4.182;2023-07-08T00:16:17;22.10;89.50
41904;DHT22;27586;51.124;4.182;2023-07-08T00:18:44;22.00;89.80
41904;DHT22;27586;51.124;4.182;2023-07-08T00:21:14;22.00;90.00
41904;DHT22;27586;51.124;4.182;2023-07-08T00:23:50;21.90;89.80
41904;DHT22;27586;51.124;4.182;2023-07-08T00:26:25;21.90;90.00
41904;DHT22;27586;51.124;4.182;2023-07-08T00:28:52;21.90;90.10
41904;DHT22;27586;51.124;4.182;2023-07-08T00:31:18;21.90;90.00
41904;DHT22;27586;51.124;4.182;2023-07-08T00:33:49;21.90;89.60
41904;DHT22;27586;51.124;4.182;2023-07-08T00:36:16;21.80;90.50
41904;DHT22;27586;51.124;4.182;2023-07-08T00:38:43;21.70;90.40
41904;DHT22;27586;51.124;4.182;2023-07-08T00:43:55;21.80;90.80
41904;DHT22;27586;51.124;4.182;2023-07-08T00:51:35;21.60;90.90
41904;DHT22;27586;51.124;4.182;2023-07-08T00:54:03;21.60;90.80
41904;DHT22;27586;51.124;4.182;2023-07-08T00:56:36;21.50;91.20
41904;DHT22;27586;51.124;4.182;2023-07-08T00:59:09;21.50;91.10
41904;DHT22;27586;51.124;4.182;2023-07-08T01:01:38;21.50;91.30
41904;DHT22;27586;51.124;4.182;2023-07-08T01:04:12;21.50;91.50
41904;DHT22;27586;51.124;4.182;2023-07-08T01:06:43;21.40;91.30
41904;DHT22;27586;51.124;4.182;2023-07-08T01:09:12;21.40;91.40
41904;DHT22;27586;51.124;4.182;2023-07-08T01:11:39;21.40;91.40
41904;DHT22;27586;51.124;4.182;2023-07-08T01:14:07;21.40;91.60
41904;DHT22;27586;51.124;4.182;2023-07-08T01:16:35;21.30;91.70
41904;DHT22;27586;51.124;4.182;2023-07-08T01:19:06;21.20;91.60
41904;DHT22;27586;51.124;4.182;2023-07-08T01:21:38;21.10;91.80
41904;DHT22;27586;51.124;4.182;2023-07-08T01:24:07;21.20;92.00
41904;DHT22;27586;51.124;4.182;2023-07-08T01:26:37;21.20;91.70
41904;DHT22;27586;51.124;4.182;2023-07-08T01:29:04;21.00;91.80
41904;DHT22;27586;51.124;4.182;2023-07-08T01:31:30;21.00;92.10
41904;DHT22;27586;51.124;4.182;2023-07-08T01:33:56;21.10;91.80
41904;DHT22;27586;51.124;4.182;2023-07-08T01:36:21;21.00;92.10
41904;DHT22;27586;51.124;4.182;2023-07-08T01:38:47;21.10;92.10
41904;DHT22;27586;51.124;4.182;2023-07-08T01:41:15;21.00;92.20
41904;DHT22;27586;51.124;4.182;2023-07-08T01:43:41;20.80;92.30
41904;DHT22;27586;51.124;4.182;2023-07-08T01:46:25;21.00;92.80
41904;DHT22;27586;51.124;4.182;2023-07-08T01:48:59;21.00;92.70
41904;DHT22;27586;51.124;4.182;2023-07-08T01:51:26;20.90;92.70
41904;DHT22;27586;51.124;4.182;2023-07-08T01:53:52;20.90;92.70
41904;DHT22;27586;51.124;4.182;2023-07-08T01:56:18;20.80;92.90
41904;DHT22;27586;51.124;4.182;2023-07-08T01:58:43;20.80;92.90
41904;DHT22;27586;51.124;4.182;2023-07-08T02:01:09;20.70;92.90
41904;DHT22;27586;51.124;4.182;2023-07-08T02:03:39;20.70;93.00
41904;DHT22;27586;51.124;4.182;2023-07-08T02:06:05;20.50;93.70
41904;DHT22;27586;51.124;4.182;2023-07-08T02:08:30;20.50;93.40
41904;DHT22;27586;51.124;4.182;2023-07-08T02:10:57;20.50;94.20
41904;DHT22;27586;51.124;4.182;2023-07-08T02:13:24;20.30;94.20
41904;DHT22;27586;51.124;4.182;2023-07-08T02:15:50;20.30;94.30
41904;DHT22;27586;51.124;4.182;2023-07-08T02:18:16;20.20;94.60
41904;DHT22;27586;51.124;4.182;2023-07-08T02:20:45;20.00;94.70
41904;DHT22;27586;51.124;4.182;2023-07-08T02:23:11;19.90;95.30
41904;DHT22;27586;51.124;4.182;2023-07-08T02:25:37;19.70;95.70
41904;DHT22;27586;51.124;4.182;2023-07-08T02:28:03;19.70;95.80
41904;DHT22;27586;51.124;4.182;2023-07-08T02:30:28;19.60;96.00
41904;DHT22;27586;51.124;4.182;2023-07-08T02:32:54;19.60;95.90
41904;DHT22;27586;51.124;4.182;2023-07-08T02:35:30;19.60;96.20
41904;DHT22;27586;51.124;4.182;2023-07-08T02:37:56;19.50;96.20
41904;DHT22;27586;51.124;4.182;2023-07-08T02:40:23;19.40;96.40
41904;DHT22;27586;51.124;4.182;2023-07-08T02:42:49;19.40;96.40
41904;DHT22;27586;51.124;4.182;2023-07-08T02:45:16;19.40;96.70
41904;DHT22;27586;51.124;4.182;2023-07-08T02:47:42;19.40;96.50
41904;DHT22;27586;51.124;4.182;2023-07-08T02:50:09;19.40;96.80
41904;DHT22;27586;51.124;4.182;2023-07-08T02:52:35;19.40;96.80
41904;DHT22;27586;51.124;4.182;2023-07-08T02:55:01;19.40;96.70
41904;DHT22;27586;51.124;4.182;2023-07-08T02:57:26;19.50;97.40
41904;DHT22;27586;51.124;4.182;2023-07-08T02:59:52;19.50;97.20
41904;DHT22;27586;51.124;4.182;2023-07-08T03:02:18;19.50;97.30
41904;DHT22;27586;51.124;4.182;2023-07-08T03:04:43;19.50;97.20
41904;DHT22;27586;51.124;4.182;2023-07-08T03:07:10;19.60;97.40
41904;DHT22;27586;51.124;4.182;2023-07-08T03:09:37;19.60;97.40
41904;DHT22;27586;51.124;4.182;2023-07-08T03:12:05;19.60;97.20
41904;DHT22;27586;51.124;4.182;2023-07-08T03:14:31;19.60;97.60
41904;DHT22;27586;51.124;4.182;2023-07-08T03:16:56;19.60;97.50
41904;DHT22;27586;51.124;4.182;2023-07-08T03:19:22;19.60;98.40
41904;DHT22;27586;51.124;4.182;2023-07-08T03:21:47;19.50;98.20
41904;DHT22;27586;51.124;4.182;2023-07-08T03:24:14;19.40;98.40
41904;DHT22;27586;51.124;4.182;2023-07-08T03:26:44;19.20;98.70
41904;DHT22;27586;51.124;4.182;2023-07-08T03:29:18;19.30;99.00
41904;DHT22;27586;51.124;4.182;2023-07-08T03:31:44;19.20;99.10
41904;DHT22;27586;51.124;4.182;2023-07-08T03:34:11;19.20;98.80
41904;DHT22;27586;51.124;4.182;2023-07-08T03:36:49;19.10;98.90
41904;DHT22;27586;51.124;4.182;2023-07-08T03:39:20;19.10;98.90
41904;DHT22;27586;51.124;4.182;2023-07-08T03:41:47;19.00;99.10
41904;DHT22;27586;51.124;4.182;2023-07-08T03:44:13;19.10;99.30
41904;DHT22;27586;51.124;4.182;2023-07-08T03:46:41;19.10;99.40
41904;DHT22;27586;51.124;4.182;2023-07-08T03:49:09;19.00;99.60
41904;DHT22;27586;51.124;4.182;2023-07-08T03:51:36;18.90;99.60
41904;DHT22;27586;51.124;4.182;2023-07-08T03:54:04;19.00;99.60
41904;DHT22;27586;51.124;4.182;2023-07-08T03:56:32;19.00;99.90
41904;DHT22;27586;51.124;4.182;2023-07-08T03:58:58;19.10;99.80
41904;DHT22;27586;51.124;4.182;2023-07-08T04:01:25;19.00;99.80
41904;DHT22;27586;51.124;4.182;2023-07-08T04:03:56;19.10;99.90
41904;DHT22;27586;51.124;4.182;2023-07-08T04:06:23;19.10;99.90
41904;DHT22;27586;51.124;4.182;2023-07-08T04:08:50;19.10;99.90
41904;DHT22;27586;51.124;4.182;2023-07-08T04:11:21;19.10;99.80
41904;DHT22;27586;51.124;4.182;2023-07-08T04:13:48;19.10;99.80
41904;DHT22;27586;51.124;4.182;2023-07-08T04:16:21;19.00;99.70
41904;DHT22;27586;51.124;4.182;2023-07-08T04:18:47;19.10;99.90
41904;DHT22;27586;51.124;4.182;2023-07-08T04:21:18;19.20;99.80
41904;DHT22;27586;51.124;4.182;2023-07-08T04:23:43;19.20;99.50
41904;DHT22;27586;51.124;4.182;2023-07-08T04:26:09;19.20;99.70
41904;DHT22;27586;51.124;4.182;2023-07-08T04:28:35;19.20;99.50
41904;DHT22;27586;51.124;4.182;2023-07-08T04:31:01;19.30;99.80
41904;DHT22;27586;51.124;4.182;2023-07-08T04:33:27;19.40;99.40
41904;DHT22;27586;51.124;4.182;2023-07-08T04:35:53;19.40;99.90
41904;DHT22;27586;51.124;4.182;2023-07-08T04:38:21;19.40;99.90
41904;DHT22;27586;51.124;4.182;2023-07-08T04:40:48;19.40;99.90
41904;DHT22;27586;51.124;4.182;2023-07-08T04:43:15;19.40;99.90
41904;DHT22;27586;51.124;4.182;2023-07-08T04:45:42;19.50;99.90
41904;DHT22;27586;51.124;4.182;2023-07-08T04:48:15;19.50;99.90
41904;DHT22;27586;51.124;4.182;2023-07-08T04:50:43;19.50;99.90
41904;DHT22;27586;51.124;4.182;2023-07-08T04:53:10;19.60;99.80
41904;DHT22;27586;51.124;4.182;2023-07-08T04:55:42;19.70;99.80
41904;DHT22;27586;51.124;4.182;2023-07-08T04:58:09;19.70;99.90
41904;DHT22;27586;51.124;4.182;2023-07-08T05:00:34;19.60;99.90
41904;DHT22;27586;51.124;4.182;2023-07-08T05:03:00;19.70;99.90
41904;DHT22;27586;51.124;4.182;2023-07-08T05:05:26;19.80;99.90
41904;DHT22;27586;51.124;4.182;2023-07-08T05:07:52;19.80;99.90
41904;DHT22;27586;51.124;4.182;2023-07-08T05:10:19;19.90;99.90
41904;DHT22;27586;51.124;4.182;2023-07-08T05:12:46;19.90;99.90
41904;DHT22;27586;51.124;4.182;2023-07-08T05:15:13;20.10;99.90
41904;DHT22;27586;51.124;4.182;2023-07-08T05:17:39;20.20;99.70
41904;DHT22;27586;51.124;4.182;2023-07-08T05:20:10;20.20;99.40
41904;DHT22;27586;51.124;4.182;2023-07-08T05:22:36;20.30;99.40
41904;DHT22;27586;51.124;4.182;2023-07-08T05:25:02;20.40;99.60
41904;DHT22;27586;51.124;4.182;2023-07-08T05:27:29;20.40;99.50
41904;DHT22;27586;51.124;4.182;2023-07-08T05:29:54;20.60;99.40
41904;DHT22;27586;51.124;4.182;2023-07-08T05:32:20;20.70;99.30
41904;DHT22;27586;51.124;4.182;2023-07-08T05:34:46;20.70;99.20
41904;DHT22;27586;51.124;4.182;2023-07-08T05:37:13;20.80;99.30
41904;DHT22;27586;51.124;4.182;2023-07-08T05:39:39;20.90;99.10
41904;DHT22;27586;51.124;4.182;2023-07-08T05:42:05;20.90;98.80
41904;DHT22;27586;51.124;4.182;2023-07-08T05:44:31;21.00;99.10
41904;DHT22;27586;51.124;4.182;2023-07-08T05:46:56;21.10;99.30
41904;DHT22;27586;51.124;4.182;2023-07-08T05:49:22;21.00;99.30
41904;DHT22;27586;51.124;4.182;2023-07-08T05:51:48;21.00;99.00
41904;DHT22;27586;51.124;4.182;2023-07-08T05:54:14;21.10;99.00
41904;DHT22;27586;51.124;4.182;2023-07-08T05:56:39;21.20;99.50
41904;DHT22;27586;51.124;4.182;2023-07-08T05:59:06;21.30;99.30
41904;DHT22;27586;51.124;4.182;2023-07-08T06:01:32;21.30;99.20
41904;DHT22;27586;51.124;4.182;2023-07-08T06:03:57;21.50;99.60
41904;DHT22;27586;51.124;4.182;2023-07-08T06:06:25;21.50;98.60
41904;DHT22;27586;51.124;4.182;2023-07-08T06:08:51;21.60;98.30
41904;DHT22;27586;51.124;4.182;2023-07-08T06:11:16;21.70;98.60
41904;DHT22;27586;51.124;4.182;2023-07-08T06:13:42;21.70;98.90
41904;DHT22;27586;51.124;4.182;2023-07-08T06:16:08;21.80;98.10
41904;DHT22;27586;51.124;4.182;2023-07-08T06:18:33;21.80;97.70
41904;DHT22;27586;51.124;4.182;2023-07-08T06:20:59;21.80;98.60
41904;DHT22;27586;51.124;4.182;2023-07-08T06:23:25;21.90;98.60
41904;DHT22;27586;51.124;4.182;2023-07-08T06:25:51;22.10;99.00
41904;DHT22;27586;51.124;4.182;2023-07-08T06:28:17;22.30;99.40
41904;DHT22;27586;51.124;4.182;2023-07-08T06:30:43;22.20;98.00
41904;DHT22;27586;51.124;4.182;2023-07-08T06:33:09;22.30;98.20
41904;DHT22;27586;51.124;4.182;2023-07-08T06:35:37;22.50;97.80
41904;DHT22;27586;51.124;4.182;2023-07-08T06:38:03;22.50;98.10
41904;DHT22;27586;51.124;4.182;2023-07-08T06:40:28;22.60;98.10
41904;DHT22;27586;51.124;4.182;2023-07-08T06:42:54;22.60;98.30
41904;DHT22;27586;51.124;4.182;2023-07-08T06:45:19;22.70;97.70
41904;DHT22;27586;51.124;4.182;2023-07-08T06:47:45;23.00;98.00
41904;DHT22;27586;51.124;4.182;2023-07-08T06:50:11;23.20;98.50
41904;DHT22;27586;51.124;4.182;2023-07-08T06:52:37;23.10;96.90
41904;DHT22;27586;51.124;4.182;2023-07-08T06:55:06;23.20;97.80
41904;DHT22;27586;51.124;4.182;2023-07-08T06:57:33;23.40;97.80
41904;DHT22;27586;51.124;4.182;2023-07-08T06:59:59;23.30;96.70
41904;DHT22;27586;51.124;4.182;2023-07-08T07:02:25;23.40;97.50
41904;DHT22;27586;51.124;4.182;2023-07-08T07:04:51;23.70;97.30
41904;DHT22;27586;51.124;4.182;2023-07-08T07:07:17;23.80;97.80
41904;DHT22;27586;51.124;4.182;2023-07-08T07:09:43;23.90;97.20
41904;DHT22;27586;51.124;4.182;2023-07-08T07:12:08;24.00;96.80
41904;DHT22;27586;51.124;4.182;2023-07-08T07:14:34;24.00;97.10
41904;DHT22;27586;51.124;4.182;2023-07-08T07:17:00;24.00;97.20
41904;DHT22;27586;51.124;4.182;2023-07-08T07:19:26;24.20;97.00
41904;DHT22;27586;51.124;4.182;2023-07-08T07:21:52;24.50;97.30
41904;DHT22;27586;51.124;4.182;2023-07-08T07:24:17;24.80;97.50
41904;DHT22;27586;51.124;4.182;2023-07-08T07:26:43;25.00;97.20
41904;DHT22;27586;51.124;4.182;2023-07-08T07:29:09;25.00;96.20
41904;DHT22;27586;51.124;4.182;2023-07-08T07:31:35;25.20;96.10
41904;DHT22;27586;51.124;4.182;2023-07-08T07:34:01;25.10;95.50
41904;DHT22;27586;51.124;4.182;2023-07-08T07:36:28;25.20;96.30
41904;DHT22;27586;51.124;4.182;2023-07-08T07:38:54;25.40;96.70
41904;DHT22;27586;51.124;4.182;2023-07-08T07:41:21;25.40;97.10
41904;DHT22;27586;51.124;4.182;2023-07-08T07:43:46;25.60;97.00
41904;DHT22;27586;51.124;4.182;2023-07-08T07:46:12;25.70;97.60
41904;DHT22;27586;51.124;4.182;2023-07-08T07:48:38;25.90;97.40
41904;DHT22;27586;51.124;4.182;2023-07-08T07:51:05;26.00;97.20
41904;DHT22;27586;51.124;4.182;2023-07-08T07:53:31;26.10;97.40
41904;DHT22;27586;51.124;4.182;2023-07-08T07:56:01;26.20;98.00
41904;DHT22;27586;51.124;4.182;2023-07-08T07:58:27;26.30;97.40
41904;DHT22;27586;51.124;4.182;2023-07-08T08:00:53;26.60;96.70
41904;DHT22;27586;51.124;4.182;2023-07-08T08:03:20;26.60;96.60
41904;DHT22;27586;51.124;4.182;2023-07-08T08:05:46;26.60;97.10
41904;DHT22;27586;51.124;4.182;2023-07-08T08:08:11;26.90;97.50
41904;DHT22;27586;51.124;4.182;2023-07-08T08:10:37;27.00;96.60
41904;DHT22;27586;51.124;4.182;2023-07-08T08:13:03;27.10;96.50
41904;DHT22;27586;51.124;4.182;2023-07-08T08:15:29;27.20;95.90
41904;DHT22;27586;51.124;4.182;2023-07-08T08:17:55;27.20;96.10
41904;DHT22;27586;51.124;4.182;2023-07-08T08:20:23;27.40;96.50
41904;DHT22;27586;51.124;4.182;2023-07-08T08:22:49;27.50;95.80
41904;DHT22;27586;51.124;4.182;2023-07-08T08:25:20;27.70;95.70
41904;DHT22;27586;51.124;4.182;2023-07-08T08:27:46;27.70;94.40
41904;DHT22;27586;51.124;4.182;2023-07-08T08:30:12;27.70;93.80
41904;DHT22;27586;51.124;4.182;2023-07-08T08:32:38;27.70;95.30
41904;DHT22;27586;51.124;4.182;2023-07-08T08:35:04;27.50;94.20
41904;DHT22;27586;51.124;4.182;2023-07-08T08:37:30;27.70;95.40
41904;DHT22;27586;51.124;4.182;2023-07-08T08:39:56;27.80;95.10
41904;DHT22;27586;51.124;4.182;2023-07-08T08:42:32;28.10;94.90
41904;DHT22;27586;51.124;4.182;2023-07-08T08:45:00;28.20;94.40
41904;DHT22;27586;51.124;4.182;2023-07-08T08:47:45;28.70;94.80
41904;DHT22;27586;51.124;4.182;2023-07-08T08:52:53;28.90;92.70
41904;DHT22;27586;51.124;4.182;2023-07-08T08:55:21;29.20;93.10
41904;DHT22;27586;51.124;4.182;2023-07-08T09:00:56;29.30;93.30
41904;DHT22;27586;51.124;4.182;2023-07-08T09:03:43;29.00;94.00
41904;DHT22;27586;51.124;4.182;2023-07-08T09:06:24;28.90;94.50
41904;DHT22;27586;51.124;4.182;2023-07-08T09:08:51;29.10;94.60
41904;DHT22;27586;51.124;4.182;2023-07-08T09:11:39;29.30;94.90
41904;DHT22;27586;51.124;4.182;2023-07-08T09:14:23;29.70;94.40
41904;DHT22;27586;51.124;4.182;2023-07-08T09:19:24;29.70;94.60
41904;DHT22;27586;51.124;4.182;2023-07-08T09:27:10;30.30;92.40
41904;DHT22;27586;51.124;4.182;2023-07-08T09:29:36;30.30;92.00
41904;DHT22;27586;51.124;4.182;2023-07-08T09:32:27;30.30;91.80
41904;DHT22;27586;51.124;4.182;2023-07-08T09:35:05;30.30;91.00
41904;DHT22;27586;51.124;4.182;2023-07-08T09:37:34;30.20;92.00
41904;DHT22;27586;51.124;4.182;2023-07-08T09:40:09;30.20;91.80
41904;DHT22;27586;51.124;4.182;2023-07-08T09:42:37;30.50;91.90
41904;DHT22;27586;51.124;4.182;2023-07-08T09:45:13;30.80;92.70
41904;DHT22;27586;51.124;4.182;2023-07-08T09:47:38;30.40;90.50
41904;DHT22;27586;51.124;4.182;2023-07-08T09:50:25;30.70;91.20
41904;DHT22;27586;51.124;4.182;2023-07-08T09:52:55;30.80;90.90
41904;DHT22;27586;51.124;4.182;2023-07-08T09:55:23;30.90;89.10
41904;DHT22;27586;51.124;4.182;2023-07-08T09:57:51;31.00;89.80
41904;DHT22;27586;51.124;4.182;2023-07-08T10:00:26;31.30;90.00
41904;DHT22;27586;51.124;4.182;2023-07-08T10:02:56;31.00;86.00
41904;DHT22;27586;51.124;4.182;2023-07-08T10:05:23;31.20;88.90
41904;DHT22;27586;51.124;4.182;2023-07-08T10:07:54;31.40;87.50
41904;DHT22;27586;51.124;4.182;2023-07-08T10:10:39;31.30;87.60
41904;DHT22;27586;51.124;4.182;2023-07-08T10:16:02;31.50;
41904;DHT22;27586;51.124;4.182;2023-07-08T10:18:33;31.30;85.80
41904;DHT22;27586;51.124;4.182;2023-07-08T10:26:31;31.80;85.30
41904;DHT22;27586;51.124;4.182;2023-07-08T10:29:28;31.70;85.00
41904;DHT22;27586;51.124;4.182;2023-07-08T10:37:56;32.10;84.70
41904;DHT22;27586;51.124;4.182;2023-07-08T10:40:54;32.30;86.60
41904;DHT22;27586;51.124;4.182;2023-07-08T10:43:41;32.60;87.50
41904;DHT22;27586;51.124;4.182;2023-07-08T10:51:30;32.90;86.40
41904;DHT22;27586;51.124;4.182;2023-07-08T11:05:43;32.70;83.20
41904;DHT22;27586;51.124;4.182;2023-07-08T11:08:23;32.80;83.20
41904;DHT22;27586;51.124;4.182;2023-07-08T11:10:56;32.80;81.00
41904;DHT22;27586;51.124;4.182;2023-07-08T11:13:25;32.60;81.00
41904;DHT22;27586;51.124;4.182;2023-07-08T11:16:05;32.80;82.00
41904;DHT22;27586;51.124;4.182;2023-07-08T11:21:18;33.00;83.60
41904;DHT22;27586;51.124;4.182;2023-07-08T11:23:47;32.90;80.90
41904;DHT22;27586;51.124;4.182;2023-07-08T11:29:00;33.20;81.40
41904;DHT22;27586;51.124;4.182;2023-07-08T11:31:30;33.00;81.10
41904;DHT22;27586;51.124;4.182;2023-07-08T11:33:57;33.10;83.00
41904;DHT22;27586;51.124;4.182;2023-07-08T11:36:23;33.30;81.00
41904;DHT22;27586;51.124;4.182;2023-07-08T11:38:53;33.30;81.60
41904;DHT22;27586;51.124;4.182;2023-07-08T11:41:21;33.40;80.20
41904;DHT22;27586;51.124;4.182;2023-07-08T11:43:53;33.10;77.60
41904;DHT22;27586;51.124;4.182;2023-07-08T11:46:30;33.30;79.00
41904;DHT22;27586;51.124;4.182;2023-07-08T11:49:12;33.50;77.20
41904;DHT22;27586;51.124;4.182;2023-07-08T11:51:41;33.30;77.40
41904;DHT22;27586;51.124;4.182;2023-07-08T11:59:25;33.50;79.80
41904;DHT22;27586;51.124;4.182;2023-07-08T12:02:03;33.50;79.60
41904;DHT22;27586;51.124;4.182;2023-07-08T12:04:34;33.30;79.00
41904;DHT22;27586;51.124;4.182;2023-07-08T12:07:15;33.50;78.60
41904;DHT22;27586;51.124;4.182;2023-07-08T12:09:47;33.50;77.90
41904;DHT22;27586;51.124;4.182;2023-07-08T12:12:27;33.40;77.50
41904;DHT22;27586;51.124;4.182;2023-07-08T12:17:44;33.60;77.40
41904;DHT22;27586;51.124;4.182;2023-07-08T12:20:23;33.70;77.30
41904;DHT22;27586;51.124;4.182;2023-07-08T12:22:50;33.30;76.30
41904;DHT22;27586;51.124;4.182;2023-07-08T12:25:18;32.90;75.20
41904;DHT22;27586;51.124;4.182;2023-07-08T12:27:45;32.90;76.90
41904;DHT22;27586;51.124;4.182;2023-07-08T12:30:12;32.90;79.00
41904;DHT22;27586;51.124;4.182;2023-07-08T12:32:39;32.90;80.30
41904;DHT22;27586;51.124;4.182;2023-07-08T12:35:08;33.00;81.90
41904;DHT22;27586;51.124;4.182;2023-07-08T12:37:35;33.10;80.90
41904;DHT22;27586;51.124;4.182;2023-07-08T12:40:01;32.90;78.30
41904;DHT22;27586;51.124;4.182;2023-07-08T12:42:31;33.20;78.40
41904;DHT22;27586;51.124;4.182;2023-07-08T12:44:57;33.30;76.80
41904;DHT22;27586;51.124;4.182;2023-07-08T12:47:22;33.30;76.60
41904;DHT22;27586;51.124;4.182;2023-07-08T12:49:48;33.40;77.00
41904;DHT22;27586;51.124;4.182;2023-07-08T12:52:21;33.30;77.40
41904;DHT22;27586;51.124;4.182;2023-07-08T12:54:47;33.40;78.50
41904;DHT22;27586;51.124;4.182;2023-07-08T12:57:15;33.50;79.50
41904;DHT22;27586;51.124;4.182;2023-07-08T12:59:41;33.50;80.40
41904;DHT22;27586;51.124;4.182;2023-07-08T13:02:19;33.60;81.90
41904;DHT22;27586;51.124;4.182;2023-07-08T13:04:47;33.80;77.10
41904;DHT22;27586;51.124;4.182;2023-07-08T13:07:38;34.10;77.30
41904;DHT22;27586;51.124;4.182;2023-07-08T13:10:06;34.10;78.00
41904;DHT22;27586;51.124;4.182;2023-07-08T13:12:35;34.00;78.00
41904;DHT22;27586;51.124;4.182;2023-07-08T13:15:05;33.60;78.20
41904;DHT22;27586;51.124;4.182;2023-07-08T13:17:34;33.10;77.70
41904;DHT22;27586;51.124;4.182;2023-07-08T13:20:03;33.00;78.80
41904;DHT22;27586;51.124;4.182;2023-07-08T13:22:29;32.90;78.50
41904;DHT22;27586;51.124;4.182;2023-07-08T13:25:02;32.80;78.40
41904;DHT22;27586;51.124;4.182;2023-07-08T13:27:28;32.70;78.40
41904;DHT22;27586;51.124;4.182;2023-07-08T13:29:57;32.50;79.50
41904;DHT22;27586;51.124;4.182;2023-07-08T13:32:30;32.30;79.50
41904;DHT22;27586;51.124;4.182;2023-07-08T13:34:57;32.40;80.80
41904;DHT22;27586;51.124;4.182;2023-07-08T13:37:22;32.30;81.30
41904;DHT22;27586;51.124;4.182;2023-07-08T13:39:53;32.30;81.20
41904;DHT22;27586;51.124;4.182;2023-07-08T13:42:19;32.40;82.80
41904;DHT22;27586;51.124;4.182;2023-07-08T13:44:46;32.20;81.30
41904;DHT22;27586;51.124;4.182;2023-07-08T13:47:21;32.00;80.30
41904;DHT22;27586;51.124;4.182;2023-07-08T13:49:49;32.00;82.90
41904;DHT22;27586;51.124;4.182;2023-07-08T13:52:21;32.00;81.10
41904;DHT22;27586;51.124;4.182;2023-07-08T13:57:16;32.00;83.20
41904;DHT22;27586;51.124;4.182;2023-07-08T13:59:41;31.70;85.80
41904;DHT22;27586;51.124;4.182;2023-07-08T14:02:28;31.30;85.90
41904;DHT22;27586;51.124;4.182;2023-07-08T14:04:55;31.10;86.80
41904;DHT22;27586;51.124;4.182;2023-07-08T14:07:25;31.00;89.30
41904;DHT22;27586;51.124;4.182;2023-07-08T14:09:51;30.90;89.00
41904;DHT22;27586;51.124;4.182;2023-07-08T14:12:18;30.60;89.10
41904;DHT22;27586;51.124;4.182;2023-07-08T14:14:43;30.30;89.00
41904;DHT22;27586;51.124;4.182;2023-07-08T14:17:15;29.90;89.50
41904;DHT22;27586;51.124;4.182;2023-07-08T14:19:44;29.60;90.10
41904;DHT22;27586;51.124;4.182;2023-07-08T14:24:41;29.30;90.10
41904;DHT22;27586;51.124;4.182;2023-07-08T14:27:08;29.30;90.40
41904;DHT22;27586;51.124;4.182;2023-07-08T14:29:41;29.10;90.20
41904;DHT22;27586;51.124;4.182;2023-07-08T14:32:14;29.10;90.80
41904;DHT22;27586;51.124;4.182;2023-07-08T14:34:41;29.10;90.40
41904;DHT22;27586;51.124;4.182;2023-07-08T14:37:14;29.00;90.10
41904;DHT22;27586;51.124;4.182;2023-07-08T14:39:40;29.00;89.30
41904;DHT22;27586;51.124;4.182;2023-07-08T14:42:10;29.10;89.40
41904;DHT22;27586;51.124;4.182;2023-07-08T14:44:37;28.90;87.80
41904;DHT22;27586;51.124;4.182;2023-07-08T14:47:14;29.20;89.30
41904;DHT22;27586;51.124;4.182;2023-07-08T14:49:40;29.40;90.70
41904;DHT22;27586;51.124;4.182;2023-07-08T14:52:07;29.70;90.20
41904;DHT22;27586;51.124;4.182;2023-07-08T14:54:33;29.90;88.30
41904;DHT22;27586;51.124;4.182;2023-07-08T14:56:59;30.20;87.80
41904;DHT22;27586;51.124;4.182;2023-07-08T14:59:27;30.40;87.20
41904;DHT22;27586;51.124;4.182;2023-07-08T15:01:55;30.50;86.80
41904;DHT22;27586;51.124;4.182;2023-07-08T15:04:21;30.50;86.00
41904;DHT22;27586;51.124;4.182;2023-07-08T15:06:47;30.60;86.50
41904;DHT22;27586;51.124;4.182;2023-07-08T15:09:15;30.70;86.90
41904;DHT22;27586;51.124;4.182;2023-07-08T15:11:42;31.00;88.70
41904;DHT22;27586;51.124;4.182;2023-07-08T15:14:22;31.10;87.30
41904;DHT22;27586;51.124;4.182;2023-07-08T15:16:49;31.20;89.00
41904;DHT22;27586;51.124;4.182;2023-07-08T15:19:16;31.20;88.20
41904;DHT22;27586;51.124;4.182;2023-07-08T15:21:42;31.30;87.90
41904;DHT22;27586;51.124;4.182;2023-07-08T15:24:12;31.30;87.60
41904;DHT22;27586;51.124;4.182;2023-07-08T15:26:39;31.20;87.00
41904;DHT22;27586;51.124;4.182;2023-07-08T15:29:16;31.30;88.30
41904;DHT22;27586;51.124;4.182;2023-07-08T15:31:42;31.30;89.50
41904;DHT22;27586;51.124;4.182;2023-07-08T15:34:20;31.10;89.60
41904;DHT22;27586;51.124;4.182;2023-07-08T15:36:47;31.00;90.10
41904;DHT22;27586;51.124;4.182;2023-07-08T15:39:13;31.10;90.60
41904;DHT22;27586;51.124;4.182;2023-07-08T15:41:39;31.00;90.70
41904;DHT22;27586;51.124;4.182;2023-07-08T15:44:11;31.00;91.30
41904;DHT22;27586;51.124;4.182;2023-07-08T15:46:42;31.00;91.20
41904;DHT22;27586;51.124;4.182;2023-07-08T15:49:17;30.90;91.40
41904;DHT22;27586;51.124;4.182;2023-07-08T15:51:44;30.80;92.00
41904;DHT22;27586;51.124;4.182;2023-07-08T15:54:10;30.90;92.10
41904;DHT22;27586;51.124;4.182;2023-07-08T15:56:37;31.00;92.10
41904;DHT22;27586;51.124;4.182;2023-07-08T15:59:03;31.10;92.30
41904;DHT22;27586;51.124;4.182;2023-07-08T16:01:29;30.90;92.70
41904;DHT22;27586;51.124;4.182;2023-07-08T16:03:55;31.10;92.40
41904;DHT22;27586;51.124;4.182;2023-07-08T16:06:20;31.10;92.20
41904;DHT22;27586;51.124;4.182;2023-07-08T16:08:46;31.10;92.80
41904;DHT22;27586;51.124;4.182;2023-07-08T16:11:15;31.00;92.50
41904;DHT22;27586;51.124;4.182;2023-07-08T16:13:42;30.90;93.00
41904;DHT22;27586;51.124;4.182;2023-07-08T16:16:12;31.00;93.30
41904;DHT22;27586;51.124;4.182;2023-07-08T16:18:39;30.90;92.50
41904;DHT22;27586;51.124;4.182;2023-07-08T16:21:05;30.90;93.00
41904;DHT22;27586;51.124;4.182;2023-07-08T16:23:31;30.80;93.30
41904;DHT22;27586;51.124;4.182;2023-07-08T16:25:57;30.90;93.30
41904;DHT22;27586;51.124;4.182;2023-07-08T16:28:34;30.90;93.90
41904;DHT22;27586;51.124;4.182;2023-07-08T16:31:17;30.80;93.50
41904;DHT22;27586;51.124;4.182;2023-07-08T16:33:44;30.80;93.80
41904;DHT22;27586;51.124;4.182;2023-07-08T16:36:23;30.70;93.90
41904;DHT22;27586;51.124;4.182;2023-07-08T16:38:49;30.70;94.10
41904;DHT22;27586;51.124;4.182;2023-07-08T16:41:16;30.60;93.90
41904;DHT22;27586;51.124;4.182;2023-07-08T16:43:42;30.70;93.70
41904;DHT22;27586;51.124;4.182;2023-07-08T16:46:10;30.60;93.20
41904;DHT22;27586;51.124;4.182;2023-07-08T16:48:35;30.70;93.70
41904;DHT22;27586;51.124;4.182;2023-07-08T16:51:02;30.60;93.90